createdAt,value
2022-10-31T00:00:28.383Z,18.88
2022-10-31T00:02:54.753Z,19.17
2022-10-31T00:05:21.798Z,18.98
2022-10-31T00:07:48.349Z,19.18
2022-10-31T00:10:14.779Z,19.16
2022-10-31T00:12:41.185Z,19.03
2022-10-31T00:15:07.764Z,19.21
2022-10-31T00:17:36.519Z,19.23
2022-10-31T00:20:03.167Z,19.21
2022-10-31T00:22:29.517Z,18.97
2022-10-31T00:24:55.843Z,18.74
2022-10-31T00:27:22.162Z,18.64
2022-10-31T00:29:48.472Z,18.90
2022-10-31T00:32:14.799Z,18.90
2022-10-31T00:34:41.119Z,18.88
2022-10-31T00:37:07.422Z,18.87
2022-10-31T00:39:34.923Z,19.00
2022-10-31T00:42:01.268Z,18.65
2022-10-31T00:44:27.609Z,19.00
2022-10-31T00:46:53.959Z,18.73
2022-10-31T00:49:20.394Z,18.64
2022-10-31T00:51:46.762Z,18.85
2022-10-31T00:54:13.099Z,18.61
2022-10-31T00:56:39.433Z,18.71
2022-10-31T00:59:05.799Z,18.51
2022-10-31T01:01:32.227Z,18.55
2022-10-31T01:03:58.743Z,18.74
2022-10-31T01:06:25.057Z,18.56
2022-10-31T01:08:51.426Z,18.67
2022-10-31T01:11:20.751Z,18.72
2022-10-31T01:13:48.309Z,18.65
2022-10-31T01:16:17.261Z,18.46
2022-10-31T01:18:44.084Z,18.62
2022-10-31T01:21:16.131Z,18.57
2022-10-31T01:23:42.987Z,18.53
2022-10-31T01:26:10.774Z,18.48
2022-10-31T01:28:39.401Z,18.09
2022-10-31T01:31:09.214Z,18.13
2022-10-31T01:33:36.662Z,17.90
2022-10-31T01:36:17.617Z,17.83
2022-10-31T01:38:44.028Z,18.04
2022-10-31T01:41:13.309Z,18.03
2022-10-31T01:43:54.598Z,18.15
2022-10-31T01:46:36.525Z,18.11
2022-10-31T01:49:06.552Z,17.92
2022-10-31T01:51:37.688Z,17.94
2022-10-31T01:54:11.561Z,17.46
2022-10-31T01:56:41.728Z,17.94
2022-10-31T01:59:12.084Z,17.97
2022-10-31T02:01:39.202Z,17.80
2022-10-31T02:04:06.907Z,17.77
2022-10-31T02:06:49.588Z,17.92
2022-10-31T02:09:16.121Z,18.03
2022-10-31T02:11:44.009Z,17.80
2022-10-31T02:14:10.743Z,17.51
2022-10-31T02:16:37.056Z,17.69
2022-10-31T02:19:08.734Z,17.79
2022-10-31T02:22:03.213Z,17.62
2022-10-31T02:25:05.265Z,17.61
2022-10-31T02:28:02.461Z,17.70
2022-10-31T02:30:54.630Z,17.71
2022-10-31T02:33:26.743Z,17.84
2022-10-31T02:36:06.169Z,17.87
2022-10-31T02:38:48.125Z,17.80
2022-10-31T02:41:25.985Z,17.60
2022-10-31T02:44:10.812Z,17.60
2022-10-31T02:46:50.944Z,17.59
2022-10-31T02:49:26.289Z,17.53
2022-10-31T02:51:52.703Z,17.43
2022-10-31T02:54:22.319Z,17.48
2022-10-31T02:56:52.172Z,17.56
2022-10-31T02:59:18.732Z,17.64
2022-10-31T03:02:03.444Z,17.51
2022-10-31T03:04:48.302Z,17.38
2022-10-31T03:07:32.861Z,17.61
2022-10-31T03:10:14.829Z,17.60
2022-10-31T03:12:48.570Z,16.94
2022-10-31T03:15:24.048Z,16.96
2022-10-31T03:17:59.204Z,17.10
2022-10-31T03:20:35.396Z,17.05
2022-10-31T03:23:05.214Z,17.33
2022-10-31T03:25:35.283Z,17.22
2022-10-31T03:28:05.439Z,17.14
2022-10-31T03:30:36.028Z,17.45
2022-10-31T03:33:07.374Z,17.13
2022-10-31T03:35:35.784Z,16.99
2022-10-31T03:38:06.974Z,17.08
2022-10-31T03:40:37.697Z,17.18
2022-10-31T03:43:13.758Z,17.28
2022-10-31T04:01:18.017Z,17.24
2022-10-31T04:03:45.951Z,17.15
2022-10-31T04:06:15.771Z,17.16
2022-10-31T04:08:56.761Z,17.14
2022-10-31T04:11:29.299Z,17.01
2022-10-31T04:13:57.708Z,17.16
2022-10-31T04:16:26.487Z,17.13
2022-10-31T04:18:53.060Z,17.16
2022-10-31T04:21:19.427Z,17.06
2022-10-31T04:23:45.823Z,17.10
2022-10-31T04:26:13.391Z,17.09
2022-10-31T04:28:39.923Z,17.09
2022-10-31T04:31:06.397Z,17.11
2022-10-31T04:33:32.702Z,17.11
2022-10-31T04:35:59.058Z,17.12
2022-10-31T04:38:25.520Z,17.24
2022-10-31T04:40:51.860Z,16.61
2022-10-31T04:45:49.783Z,16.95
2022-10-31T04:48:16.349Z,16.85
2022-10-31T04:50:42.782Z,16.78
2022-10-31T04:53:09.201Z,17.01
2022-10-31T04:55:36.817Z,16.99
2022-10-31T04:58:04.327Z,17.16
2022-10-31T05:00:30.997Z,17.19
2022-10-31T05:02:59.172Z,16.89
2022-10-31T05:05:28.985Z,17.19
2022-10-31T05:07:56.479Z,16.93
2022-10-31T05:10:25.239Z,17.14
2022-10-31T05:12:58.354Z,17.09
2022-10-31T05:15:26.900Z,17.07
2022-10-31T05:17:54.491Z,16.90
2022-10-31T05:20:24.028Z,17.08
2022-10-31T05:22:53.433Z,16.85
2022-10-31T05:25:22.156Z,17.09
2022-10-31T05:27:50.568Z,16.93
2022-10-31T05:30:36.614Z,16.80
2022-10-31T05:33:03.242Z,16.81
2022-10-31T05:35:32.645Z,17.04
2022-10-31T05:37:59.607Z,16.72
2022-10-31T05:40:27.714Z,17.02
2022-10-31T05:42:56.302Z,16.97
2022-10-31T05:45:23.763Z,16.94
2022-10-31T05:47:54.782Z,16.77
2022-10-31T05:50:22.309Z,16.72
2022-10-31T05:52:48.739Z,16.61
2022-10-31T05:55:15.154Z,16.42
2022-10-31T05:57:41.457Z,16.49
2022-10-31T06:00:08.691Z,16.27
2022-10-31T06:02:35.463Z,15.94
2022-10-31T06:05:02.688Z,16.19
2022-10-31T06:07:33.943Z,16.18
2022-10-31T06:10:00.433Z,16.35
2022-10-31T06:12:26.811Z,16.36
2022-10-31T06:14:53.132Z,16.46
2022-10-31T06:17:19.462Z,16.43
2022-10-31T06:19:45.855Z,16.32
2022-10-31T06:22:12.408Z,16.10
2022-10-31T06:24:39.326Z,16.45
2022-10-31T06:27:07.154Z,16.23
2022-10-31T06:29:33.531Z,16.37
2022-10-31T06:31:59.876Z,16.32
2022-10-31T06:34:26.184Z,16.38
2022-10-31T06:36:52.597Z,16.01
2022-10-31T06:39:18.946Z,16.13
2022-10-31T06:41:48.613Z,16.39
2022-10-31T06:44:15.018Z,16.20
2022-10-31T06:46:41.362Z,16.26
2022-10-31T06:49:07.656Z,16.40
2022-10-31T06:51:34.023Z,16.10
2022-10-31T06:54:00.347Z,16.11
2022-10-31T06:56:26.784Z,16.03
2022-10-31T06:58:53.188Z,15.89
2022-10-31T07:01:19.647Z,15.94
2022-10-31T07:03:46.430Z,16.13
2022-10-31T07:06:14.008Z,16.10
2022-10-31T07:08:40.689Z,16.14
2022-10-31T07:11:06.996Z,16.30
2022-10-31T07:13:33.694Z,16.07
2022-10-31T07:16:02.474Z,16.39
2022-10-31T07:18:29.188Z,16.33
2022-10-31T07:20:55.716Z,16.22
2022-10-31T07:23:22.836Z,16.50
2022-10-31T07:25:49.157Z,16.37
2022-10-31T07:28:15.714Z,16.23
2022-10-31T07:30:42.039Z,16.40
2022-10-31T07:33:09.366Z,16.38
2022-10-31T07:35:36.290Z,16.25
2022-10-31T07:38:13.815Z,16.45
2022-10-31T07:40:41.206Z,16.59
2022-10-31T07:43:10.151Z,16.60
2022-10-31T07:45:39.523Z,16.52
2022-10-31T07:48:06.541Z,16.59
2022-10-31T07:50:36.752Z,16.56
2022-10-31T07:53:11.736Z,16.50
2022-10-31T07:55:38.741Z,16.65
2022-10-31T07:58:06.395Z,16.50
2022-10-31T08:00:34.747Z,16.85
2022-10-31T08:03:03.826Z,16.89
2022-10-31T08:05:31.762Z,17.01
2022-10-31T08:07:59.098Z,17.13
2022-10-31T08:10:27.079Z,17.16
2022-10-31T08:12:58.312Z,17.01
2022-10-31T08:15:25.261Z,17.38
2022-10-31T08:17:51.668Z,17.45
2022-10-31T08:20:18.993Z,17.48
2022-10-31T08:22:53.845Z,17.51
2022-10-31T08:25:20.168Z,17.53
2022-10-31T08:27:51.564Z,17.69
2022-10-31T08:30:18.652Z,17.52
2022-10-31T08:32:46.215Z,17.63
2022-10-31T08:35:12.666Z,17.45
2022-10-31T08:37:38.989Z,17.31
2022-10-31T08:40:07.456Z,17.56
2022-10-31T08:42:33.900Z,17.47
2022-10-31T08:45:00.289Z,17.67
2022-10-31T08:47:26.754Z,17.75
2022-10-31T08:49:53.056Z,17.96
2022-10-31T08:52:19.375Z,17.85
2022-10-31T08:54:45.688Z,17.90
2022-10-31T08:57:12.000Z,17.84
2022-10-31T08:59:38.309Z,18.00
2022-10-31T09:02:06.121Z,18.06
2022-10-31T09:04:32.448Z,17.95
2022-10-31T09:07:20.041Z,17.91
2022-10-31T09:09:45.152Z,18.05
2022-10-31T09:12:11.465Z,17.73
2022-10-31T09:14:37.821Z,18.41
2022-10-31T09:17:04.141Z,18.30
2022-10-31T09:19:30.649Z,18.33
2022-10-31T09:21:57.013Z,18.40
2022-10-31T09:24:23.418Z,18.68
2022-10-31T09:26:49.764Z,18.67
2022-10-31T09:29:16.104Z,18.78
2022-10-31T09:31:45.043Z,18.82
2022-10-31T09:34:11.617Z,18.79
2022-10-31T09:36:39.271Z,19.12
2022-10-31T09:39:05.637Z,19.09
2022-10-31T09:41:57.245Z,19.24
2022-10-31T09:44:39.204Z,19.21
2022-10-31T09:47:24.714Z,19.36
2022-10-31T09:50:17.959Z,19.15
2022-10-31T09:52:55.041Z,19.44
2022-10-31T09:55:42.841Z,19.52
2022-10-31T09:58:20.769Z,19.58
2022-10-31T10:00:48.816Z,19.78
2022-10-31T10:03:29.684Z,19.77
2022-10-31T10:06:05.538Z,19.67
2022-10-31T10:08:34.118Z,19.93
2022-10-31T10:11:23.864Z,20.14
2022-10-31T10:14:19.045Z,20.17
2022-10-31T10:17:07.265Z,20.47
2022-10-31T10:19:58.587Z,20.46
2022-10-31T10:22:43.526Z,20.34
2022-10-31T10:25:15.293Z,20.25
2022-10-31T10:28:03.480Z,20.12
2022-10-31T10:30:49.670Z,19.93
2022-10-31T10:33:31.883Z,20.01
2022-10-31T10:36:01.490Z,19.86
2022-10-31T10:38:44.558Z,20.14
2022-10-31T10:41:21.727Z,19.91
2022-10-31T10:43:52.474Z,20.17
2022-10-31T10:47:00.847Z,20.31
2022-10-31T10:49:48.788Z,20.45
2022-10-31T10:52:42.032Z,20.21
2022-10-31T10:55:12.813Z,20.71
2022-10-31T10:57:59.750Z,20.71
2022-10-31T11:00:30.366Z,20.28
2022-10-31T11:02:57.527Z,20.15
2022-10-31T11:05:51.526Z,20.50
2022-10-31T11:08:44.403Z,20.45
2022-10-31T11:11:26.652Z,20.60
2022-10-31T11:14:12.665Z,20.60
2022-10-31T11:16:42.796Z,20.33
2022-10-31T11:19:18.221Z,20.65
2022-10-31T11:21:53.778Z,20.69
2022-10-31T11:24:28.328Z,20.21
2022-10-31T11:27:29.488Z,20.58
2022-10-31T11:30:06.526Z,20.73
2022-10-31T11:32:33.330Z,20.37
2022-10-31T11:35:03.443Z,20.53
2022-10-31T11:37:43.571Z,20.53
2022-10-31T11:40:22.122Z,20.97
2022-10-31T11:42:50.676Z,20.98
2022-10-31T11:45:23.077Z,21.29
2022-10-31T11:47:56.732Z,20.95
2022-10-31T11:50:40.212Z,21.32
2022-10-31T11:53:18.808Z,21.25
2022-10-31T11:55:47.357Z,21.32
2022-10-31T11:58:25.822Z,21.61
2022-10-31T12:00:55.716Z,21.47
2022-10-31T12:03:39.538Z,21.23
2022-10-31T12:06:24.610Z,21.41
2022-10-31T12:08:53.589Z,21.63
2022-10-31T12:11:35.272Z,21.74
2022-10-31T12:14:04.601Z,21.92
2022-10-31T12:16:40.965Z,21.84
2022-10-31T12:19:30.524Z,21.91
2022-10-31T12:22:24.975Z,21.69
2022-10-31T12:25:16.417Z,22.00
2022-10-31T12:28:04.714Z,21.99
2022-10-31T12:31:08.477Z,22.03
2022-10-31T12:34:17.156Z,21.66
2022-10-31T12:37:13.769Z,21.77
2022-10-31T12:39:52.867Z,21.78
2022-10-31T12:42:48.115Z,22.18
2022-10-31T12:45:45.824Z,21.90
2022-10-31T12:48:28.193Z,22.16
2022-10-31T12:51:16.377Z,22.18
2022-10-31T12:53:42.669Z,22.21
2022-10-31T12:56:20.276Z,22.26
2022-10-31T12:58:52.559Z,22.08
2022-10-31T13:01:25.359Z,22.16
2022-10-31T13:04:22.625Z,21.74
2022-10-31T13:07:00.462Z,22.08
2022-10-31T13:09:37.944Z,22.03
2022-10-31T13:12:11.254Z,22.17
2022-10-31T13:14:46.936Z,21.94
2022-10-31T13:17:44.401Z,22.14
2022-10-31T13:20:20.806Z,22.23
2022-10-31T13:22:51.124Z,22.31
2022-10-31T13:25:25.526Z,22.11
2022-10-31T13:28:00.461Z,22.37
2022-10-31T13:30:32.221Z,22.15
2022-10-31T13:33:10.478Z,22.25
2022-10-31T13:35:44.341Z,22.27
2022-10-31T13:38:35.929Z,22.20
2022-10-31T13:41:18.962Z,22.28
2022-10-31T13:44:02.378Z,22.07
2022-10-31T13:46:34.549Z,22.26
2022-10-31T13:49:01.295Z,22.07
2022-10-31T13:51:34.913Z,21.96
2022-10-31T13:54:21.915Z,22.24
2022-10-31T13:56:53.467Z,22.07
2022-10-31T13:59:22.008Z,22.25
2022-10-31T14:01:55.984Z,22.17
2022-10-31T14:04:40.230Z,22.13
2022-10-31T14:07:13.152Z,21.88
2022-10-31T14:09:59.680Z,22.07
2022-10-31T14:12:34.494Z,21.89
2022-10-31T14:15:13.144Z,22.00
2022-10-31T14:17:47.920Z,22.04
2022-10-31T14:20:14.930Z,22.08
2022-10-31T14:22:43.094Z,21.94
2022-10-31T14:25:36.125Z,22.03
2022-10-31T14:28:19.191Z,21.88
2022-10-31T14:30:57.958Z,21.87
2022-10-31T14:33:27.915Z,22.00
2022-10-31T14:36:04.374Z,21.98
2022-10-31T14:38:48.724Z,21.96
2022-10-31T14:41:29.368Z,22.04
2022-10-31T14:44:15.487Z,22.08
2022-10-31T14:47:03.389Z,22.14
2022-10-31T14:49:54.449Z,22.18
2022-10-31T14:52:22.027Z,22.14
2022-10-31T14:54:54.614Z,21.98
2022-10-31T14:57:29.766Z,22.20
2022-10-31T15:00:06.034Z,22.14
2022-10-31T15:02:42.463Z,22.14
2022-10-31T15:05:10.961Z,22.10
2022-10-31T15:07:40.910Z,21.91
2022-10-31T15:10:21.353Z,22.04
2022-10-31T15:12:47.863Z,22.08
2022-10-31T15:15:26.747Z,21.97
2022-10-31T15:18:00.455Z,22.04
2022-10-31T15:20:29.441Z,21.91
2022-10-31T15:22:58.709Z,21.88
2022-10-31T15:25:28.996Z,22.02
2022-10-31T15:27:55.322Z,21.80
2022-10-31T15:30:27.920Z,21.95
2022-10-31T15:32:58.770Z,21.88
2022-10-31T15:35:30.965Z,21.88
2022-10-31T15:37:59.872Z,21.87
2022-10-31T15:40:28.051Z,21.83
2022-10-31T15:42:58.962Z,21.52
2022-10-31T15:45:27.978Z,21.65
2022-10-31T15:47:58.754Z,21.56
2022-10-31T15:50:33.510Z,21.50
2022-10-31T15:53:01.013Z,21.57
2022-10-31T15:55:30.530Z,21.50
2022-10-31T15:57:59.574Z,21.36
2022-10-31T16:00:30.404Z,21.27
2022-10-31T16:03:22.553Z,21.30
2022-10-31T16:05:52.036Z,21.12
2022-10-31T16:08:27.591Z,20.75
2022-10-31T16:10:54.309Z,20.93
2022-10-31T16:13:27.057Z,20.97
2022-10-31T16:16:28.735Z,20.92
2022-10-31T16:18:47.505Z,20.94
2022-10-31T16:21:14.175Z,20.64
2022-10-31T16:23:46.831Z,20.76
2022-10-31T16:26:19.568Z,20.83
2022-10-31T16:29:03.199Z,20.67
2022-10-31T16:31:41.016Z,20.54
2022-10-31T16:34:26.239Z,20.68
2022-10-31T16:36:53.641Z,20.78
2022-10-31T16:39:20.097Z,20.75
2022-10-31T16:41:50.200Z,20.57
2022-10-31T16:44:23.360Z,20.46
2022-10-31T16:47:08.417Z,20.58
2022-10-31T16:49:34.786Z,20.76
2022-10-31T16:52:01.147Z,20.49
2022-10-31T16:54:30.044Z,20.76
2022-10-31T16:56:56.521Z,20.73
2022-10-31T16:59:22.852Z,20.72
2022-10-31T17:01:50.208Z,20.76
2022-10-31T17:04:16.757Z,20.65
2022-10-31T17:06:43.226Z,20.68
2022-10-31T17:09:09.817Z,20.66
2022-10-31T17:11:36.854Z,20.58
2022-10-31T17:14:05.721Z,20.51
2022-10-31T17:16:32.029Z,20.57
2022-10-31T17:18:58.343Z,20.56
2022-10-31T17:21:26.300Z,20.77
2022-10-31T17:23:52.601Z,20.73
2022-10-31T17:26:19.775Z,20.75
2022-10-31T17:28:46.375Z,20.58
2022-10-31T17:31:23.527Z,20.68
2022-10-31T17:33:50.745Z,20.69
2022-10-31T17:36:17.479Z,20.53
2022-10-31T17:38:43.791Z,20.70
2022-10-31T17:41:11.453Z,20.64
2022-10-31T17:43:38.265Z,20.49
2022-10-31T17:46:05.085Z,20.57
2022-10-31T17:48:33.725Z,20.63
2022-10-31T17:51:01.813Z,20.50
2022-10-31T17:53:30.304Z,20.50
2022-10-31T17:56:07.789Z,20.60
2022-10-31T17:58:35.533Z,20.57
2022-10-31T18:01:08.269Z,20.45
2022-10-31T18:03:34.744Z,20.30
2022-10-31T18:06:01.055Z,20.19
2022-10-31T18:08:29.667Z,20.07
2022-10-31T18:10:59.657Z,20.26
2022-10-31T18:13:27.555Z,20.24
2022-10-31T18:15:54.559Z,20.33
2022-10-31T18:18:21.587Z,20.27
2022-10-31T18:20:48.000Z,20.19
2022-10-31T18:23:14.641Z,20.14
2022-10-31T18:25:43.249Z,20.25
2022-10-31T18:28:10.391Z,20.28
2022-10-31T18:30:41.356Z,20.09
2022-10-31T18:33:08.464Z,20.14
2022-10-31T18:35:39.113Z,20.11
2022-10-31T18:38:06.833Z,19.96
2022-10-31T18:40:35.685Z,20.14
2022-10-31T18:43:03.386Z,19.98
2022-10-31T18:45:41.745Z,19.75
2022-10-31T18:48:14.322Z,19.82
2022-10-31T18:50:41.463Z,19.94
2022-10-31T18:53:07.956Z,19.79
2022-10-31T18:55:34.509Z,19.78
2022-10-31T18:58:00.828Z,19.84
2022-10-31T19:00:27.155Z,19.83
2022-10-31T19:02:56.321Z,19.94
2022-10-31T19:05:23.073Z,19.75
2022-10-31T19:07:49.406Z,19.92
2022-10-31T19:10:15.901Z,19.73
2022-10-31T19:12:42.217Z,19.74
2022-10-31T19:15:08.934Z,19.76
2022-10-31T19:17:35.249Z,19.67
2022-10-31T19:20:01.585Z,19.61
2022-10-31T19:22:31.056Z,19.49
2022-10-31T19:24:57.344Z,19.56
2022-10-31T19:27:26.308Z,19.41
2022-10-31T19:29:52.645Z,19.33
2022-10-31T19:32:19.201Z,19.57
2022-10-31T19:34:45.587Z,19.52
2022-10-31T19:37:12.064Z,19.37
2022-10-31T19:39:43.712Z,19.51
2022-10-31T19:42:10.702Z,19.52
2022-10-31T19:44:37.233Z,19.24
2022-10-31T19:47:03.600Z,19.06
2022-10-31T19:49:30.010Z,19.41
2022-10-31T19:51:56.440Z,19.26
2022-10-31T19:54:23.500Z,19.47
2022-10-31T19:56:49.938Z,19.29
2022-10-31T19:59:16.319Z,19.37
2022-10-31T20:01:42.735Z,19.25
2022-10-31T20:04:09.244Z,19.44
2022-10-31T20:06:46.736Z,19.10
2022-10-31T20:09:18.908Z,19.25
2022-10-31T20:11:51.894Z,19.31
2022-10-31T20:14:24.257Z,19.19
2022-10-31T20:16:59.374Z,19.26
2022-10-31T20:19:25.684Z,19.35
2022-10-31T20:21:52.193Z,19.15
2022-10-31T20:24:18.889Z,19.15
2022-10-31T20:26:45.245Z,19.11
2022-10-31T20:29:19.520Z,19.17
2022-10-31T20:31:47.135Z,19.31
2022-10-31T20:34:14.802Z,19.33
2022-10-31T20:36:41.350Z,19.12
2022-10-31T20:39:09.314Z,19.26
2022-10-31T20:41:39.406Z,19.26
2022-10-31T20:44:06.474Z,19.03
2022-10-31T20:46:33.034Z,19.11
2022-10-31T20:48:59.732Z,19.18
2022-10-31T20:51:28.232Z,19.15
2022-10-31T20:53:56.328Z,19.19
2022-10-31T20:56:24.522Z,18.76
2022-10-31T20:58:51.483Z,19.07
2022-10-31T21:01:21.179Z,18.99
2022-10-31T21:03:48.696Z,19.05
2022-10-31T21:06:16.388Z,19.02
2022-10-31T21:08:43.350Z,18.88
2022-10-31T21:11:13.512Z,18.82
2022-10-31T21:13:42.049Z,19.01
2022-10-31T21:16:11.590Z,18.98
2022-10-31T21:18:39.610Z,19.03
2022-10-31T21:21:11.463Z,18.75
2022-10-31T21:23:38.732Z,18.96
2022-10-31T21:26:11.059Z,18.90
2022-10-31T21:28:37.827Z,18.97
2022-10-31T21:31:13.029Z,18.82
2022-10-31T21:33:39.845Z,18.82
2022-10-31T21:36:07.321Z,18.68
2022-10-31T21:38:34.367Z,18.78
2022-10-31T21:41:03.254Z,18.77
2022-10-31T21:43:30.032Z,18.74
2022-10-31T21:46:02.594Z,18.72
2022-10-31T21:48:28.982Z,18.59
2022-10-31T21:50:55.335Z,18.81
2022-10-31T21:53:40.132Z,18.58
2022-10-31T21:56:07.075Z,18.68
2022-10-31T21:58:36.195Z,18.55
2022-10-31T22:01:05.339Z,18.66
2022-10-31T22:03:38.692Z,18.59
2022-10-31T22:06:07.401Z,18.65
2022-10-31T22:08:34.044Z,18.59
2022-10-31T22:11:05.291Z,18.79
2022-10-31T22:13:33.166Z,18.74
2022-10-31T22:16:04.222Z,18.42
2022-10-31T22:18:30.769Z,18.69
2022-10-31T22:21:19.511Z,18.81
2022-10-31T22:23:51.085Z,18.88
2022-10-31T22:26:17.503Z,18.85
2022-10-31T22:28:46.084Z,18.79
2022-10-31T22:31:15.576Z,18.84
2022-10-31T22:33:42.008Z,18.66
2022-10-31T22:36:11.644Z,18.81
2022-10-31T22:38:42.187Z,18.82
2022-10-31T22:41:10.880Z,18.80
2022-10-31T22:43:37.541Z,18.65
2022-10-31T22:46:06.239Z,18.74
2022-10-31T22:48:37.110Z,18.65
2022-10-31T22:51:08.393Z,18.85
2022-10-31T22:53:35.981Z,18.83
2022-10-31T22:56:03.229Z,18.70
2022-10-31T22:58:30.931Z,18.86
2022-10-31T23:00:57.560Z,18.83
2022-10-31T23:03:24.699Z,18.72
2022-10-31T23:05:57.994Z,18.77
2022-10-31T23:08:25.400Z,18.61
2022-10-31T23:10:52.087Z,18.79
2022-10-31T23:13:36.941Z,18.56
2022-10-31T23:16:07.615Z,18.82
2022-10-31T23:18:49.718Z,18.69
2022-10-31T23:21:37.113Z,18.70
2022-10-31T23:24:03.745Z,18.77
2022-10-31T23:26:48.715Z,18.71
2022-10-31T23:29:15.008Z,18.64
2022-10-31T23:31:41.311Z,18.61
2022-10-31T23:34:07.642Z,18.85
2022-10-31T23:36:34.003Z,19.09
2022-10-31T23:39:00.394Z,19.19
2022-10-31T23:41:26.728Z,19.17
2022-10-31T23:43:53.012Z,19.40
2022-10-31T23:46:19.331Z,19.37
2022-10-31T23:48:48.045Z,19.43
2022-10-31T23:51:14.883Z,19.47
2022-10-31T23:53:45.010Z,19.41
2022-10-31T23:56:12.115Z,19.44
2022-10-31T23:58:38.850Z,19.69
